createdAt,value
2023-12-18T00:00:43.565Z,8.60
2023-12-18T00:03:50.738Z,8.30
2023-12-18T00:06:57.792Z,9.10
2023-12-18T00:10:04.380Z,9.30
2023-12-18T00:13:10.732Z,8.60
2023-12-18T00:16:18.162Z,8.90
2023-12-18T00:19:24.804Z,8.50
2023-12-18T00:22:31.635Z,8.90
2023-12-18T00:25:39.587Z,9.70
2023-12-18T00:28:46.469Z,9.00
2023-12-18T00:31:52.970Z,9.00
2023-12-18T00:35:00.164Z,9.10
2023-12-18T00:38:07.539Z,8.90
2023-12-18T00:41:14.708Z,9.10
2023-12-18T00:44:22.691Z,9.70
2023-12-18T00:47:29.957Z,9.00
2023-12-18T00:50:37.133Z,9.20
2023-12-18T00:53:43.422Z,9.50
2023-12-18T00:56:50.101Z,9.00
2023-12-18T00:59:57.741Z,9.20
2023-12-18T01:03:04.371Z,9.80
2023-12-18T01:06:11.010Z,9.50
2023-12-18T01:09:17.404Z,9.70
2023-12-18T01:12:24.033Z,9.30
2023-12-18T01:15:30.585Z,9.30
2023-12-18T01:18:36.937Z,10.20
2023-12-18T01:21:43.617Z,9.60
2023-12-18T01:24:50.122Z,9.30
2023-12-18T01:27:56.302Z,9.20
2023-12-18T01:31:02.806Z,10.00
2023-12-18T01:34:10.142Z,9.60
2023-12-18T01:37:16.598Z,9.60
2023-12-18T01:40:23.389Z,10.50
2023-12-18T01:43:30.427Z,9.70
2023-12-18T01:46:37.737Z,9.90
2023-12-18T01:49:44.652Z,9.40
2023-12-18T01:52:51.464Z,9.60
2023-12-18T01:55:59.167Z,10.40
2023-12-18T01:59:06.020Z,9.50
2023-12-18T02:02:12.908Z,9.50
2023-12-18T02:05:19.470Z,9.50
2023-12-18T02:08:26.577Z,9.90
2023-12-18T02:11:33.040Z,10.30
2023-12-18T02:14:39.539Z,10.30
2023-12-18T02:17:46.484Z,10.20
2023-12-18T02:20:53.119Z,9.20
2023-12-18T02:23:59.371Z,9.80
2023-12-18T02:27:06.138Z,10.10
2023-12-18T02:30:17.404Z,10.30
2023-12-18T02:33:27.170Z,10.40
2023-12-18T02:36:38.886Z,10.70
2023-12-18T02:40:01.212Z,9.80
2023-12-18T02:43:12.838Z,10.00
2023-12-18T02:46:31.984Z,10.10
2023-12-18T02:49:48.500Z,10.50
2023-12-18T02:53:07.975Z,9.90
2023-12-18T02:56:42.580Z,10.00
2023-12-18T03:00:37.411Z,9.90
2023-12-18T03:03:46.944Z,10.60
2023-12-18T03:06:53.472Z,9.90
2023-12-18T03:10:00.530Z,10.90
2023-12-18T03:13:07.611Z,10.90
2023-12-18T03:16:14.502Z,10.50
2023-12-18T03:19:21.466Z,10.60
2023-12-18T03:22:28.033Z,11.50
2023-12-18T03:25:34.341Z,11.40
2023-12-18T03:28:40.968Z,11.90
2023-12-18T03:31:47.344Z,10.90
2023-12-18T03:34:54.058Z,10.90
2023-12-18T03:38:00.479Z,11.50
2023-12-18T03:41:07.498Z,11.30
2023-12-18T03:44:13.741Z,10.90
2023-12-18T03:47:20.343Z,10.70
2023-12-18T03:50:26.708Z,10.90
2023-12-18T03:53:34.498Z,10.50
2023-12-18T03:56:41.378Z,11.00
2023-12-18T03:59:47.624Z,11.20
2023-12-18T04:02:54.034Z,10.80
2023-12-18T04:06:00.607Z,11.10
2023-12-18T04:09:07.438Z,11.90
2023-12-18T04:12:13.945Z,12.20
2023-12-18T04:15:20.297Z,11.40
2023-12-18T04:18:26.833Z,11.90
2023-12-18T04:21:33.263Z,11.10
2023-12-18T04:24:39.444Z,11.50
2023-12-18T04:27:46.213Z,10.40
2023-12-18T04:30:52.863Z,11.90
2023-12-18T04:33:59.194Z,12.40
2023-12-18T04:37:08.703Z,11.80
2023-12-18T04:40:17.590Z,11.40
2023-12-18T04:43:23.770Z,11.70
2023-12-18T04:46:30.103Z,12.40
2023-12-18T04:49:36.377Z,11.60
2023-12-18T04:52:43.725Z,11.80
2023-12-18T04:55:50.501Z,11.60
2023-12-18T04:58:57.075Z,11.60
2023-12-18T05:02:03.333Z,12.20
2023-12-18T05:05:10.316Z,11.70
2023-12-18T05:08:16.722Z,11.90
2023-12-18T05:11:23.939Z,12.30
2023-12-18T05:14:30.528Z,12.50
2023-12-18T05:17:36.789Z,11.60
2023-12-18T05:20:43.396Z,12.70
2023-12-18T05:23:51.047Z,12.60
2023-12-18T05:26:57.620Z,13.00
2023-12-18T05:30:05.522Z,13.80
2023-12-18T05:33:12.335Z,13.10
2023-12-18T05:36:18.921Z,13.50
2023-12-18T05:39:25.427Z,12.80
2023-12-18T05:42:31.894Z,12.80
2023-12-18T05:45:38.498Z,13.50
2023-12-18T05:48:44.854Z,12.70
2023-12-18T05:51:51.740Z,11.90
2023-12-18T05:54:57.974Z,14.20
2023-12-18T05:58:05.261Z,13.20
2023-12-18T06:01:11.715Z,14.40
2023-12-18T06:04:18.548Z,13.30
2023-12-18T06:07:25.068Z,13.70
2023-12-18T06:10:31.357Z,13.60
2023-12-18T06:13:40.427Z,13.50
2023-12-18T06:16:47.091Z,14.40
2023-12-18T06:19:53.496Z,14.00
2023-12-18T06:23:00.151Z,12.80
2023-12-18T06:26:07.632Z,13.50
2023-12-18T06:29:14.178Z,14.00
2023-12-18T06:32:20.470Z,14.10
2023-12-18T06:35:27.210Z,14.00
2023-12-18T06:38:33.696Z,14.30
2023-12-18T06:41:39.988Z,13.70
2023-12-18T06:44:46.957Z,13.40
2023-12-18T06:47:53.662Z,13.60
2023-12-18T06:51:00.209Z,14.60
2023-12-18T06:54:07.559Z,13.90
2023-12-18T06:57:14.516Z,14.00
2023-12-18T07:00:31.852Z,14.90
2023-12-18T07:03:46.306Z,13.60
2023-12-18T07:06:53.176Z,15.30
2023-12-18T07:09:59.529Z,14.70
2023-12-18T07:13:06.551Z,14.40
2023-12-18T07:16:21.313Z,14.90
2023-12-18T07:19:28.055Z,13.70
2023-12-18T07:22:36.533Z,14.70
2023-12-18T07:25:43.651Z,14.60
2023-12-18T07:28:50.140Z,13.80
2023-12-18T07:31:57.829Z,15.00
2023-12-18T07:35:04.478Z,15.20
2023-12-18T07:38:11.848Z,15.80
2023-12-18T07:41:22.143Z,14.50
2023-12-18T07:44:28.637Z,14.30
2023-12-18T07:47:35.296Z,14.90
2023-12-18T07:50:41.893Z,15.90
2023-12-18T07:53:48.434Z,16.20
2023-12-18T07:56:55.205Z,14.60
2023-12-18T08:00:01.711Z,14.70
2023-12-18T08:03:10.342Z,15.60
2023-12-18T08:06:18.291Z,14.70
2023-12-18T08:09:24.979Z,14.80
2023-12-18T08:12:31.648Z,15.00
2023-12-18T08:15:40.331Z,15.60
2023-12-18T08:18:48.820Z,15.10
2023-12-18T08:21:56.150Z,15.20
2023-12-18T08:25:04.107Z,15.90
2023-12-18T08:28:12.703Z,15.30
2023-12-18T08:31:19.606Z,15.60
2023-12-18T08:34:28.156Z,14.90
2023-12-18T08:37:34.818Z,14.40
2023-12-18T08:40:41.804Z,15.50
2023-12-18T08:43:55.852Z,15.70
2023-12-18T08:47:10.572Z,15.50
2023-12-18T08:50:16.828Z,14.80
2023-12-18T08:53:23.175Z,14.80
2023-12-18T08:56:29.580Z,15.30
2023-12-18T08:59:36.381Z,15.30
2023-12-18T09:02:43.185Z,15.00
2023-12-18T09:05:50.154Z,15.70
2023-12-18T09:08:56.520Z,15.60
2023-12-18T09:12:02.890Z,15.30
2023-12-18T09:15:11.606Z,15.60
2023-12-18T09:18:18.183Z,16.60
2023-12-18T09:21:32.210Z,16.20
2023-12-18T09:24:38.777Z,16.90
2023-12-18T09:27:45.124Z,16.20
2023-12-18T09:30:51.586Z,18.00
2023-12-18T09:33:58.159Z,16.40
2023-12-18T09:37:04.189Z,15.80
2023-12-18T09:40:12.897Z,15.60
2023-12-18T09:43:21.875Z,15.90
2023-12-18T09:46:28.414Z,16.80
2023-12-18T09:49:35.430Z,15.30
2023-12-18T09:52:44.691Z,15.80
2023-12-18T09:55:53.215Z,16.30
2023-12-18T09:58:59.910Z,16.70
2023-12-18T10:02:07.440Z,15.90
2023-12-18T10:05:13.882Z,17.00
2023-12-18T10:08:19.902Z,17.10
2023-12-18T10:11:27.350Z,18.10
2023-12-18T10:14:33.683Z,17.30
2023-12-18T10:17:41.487Z,16.20
2023-12-18T10:20:51.030Z,16.20
2023-12-18T10:23:57.419Z,15.80
2023-12-18T10:27:03.696Z,15.40
2023-12-18T10:30:13.489Z,15.10
2023-12-18T10:33:21.197Z,15.10
2023-12-18T10:36:27.450Z,14.60
2023-12-18T10:39:34.438Z,14.10
2023-12-18T10:42:43.604Z,14.10
2023-12-18T10:45:50.496Z,15.10
2023-12-18T10:48:56.633Z,14.10
2023-12-18T10:52:03.685Z,13.30
2023-12-18T10:55:11.685Z,13.00
2023-12-18T10:58:20.490Z,15.00
2023-12-18T11:01:27.583Z,14.60
2023-12-18T11:04:37.285Z,15.20
2023-12-18T11:07:44.455Z,15.20
2023-12-18T11:10:50.946Z,15.70
2023-12-18T11:14:09.004Z,15.60
2023-12-18T11:17:23.153Z,16.20
2023-12-18T11:20:35.192Z,17.20
2023-12-18T11:23:43.568Z,17.10
2023-12-18T11:26:50.386Z,18.80
2023-12-18T11:29:58.876Z,18.40
2023-12-18T11:33:08.106Z,18.60
2023-12-18T11:36:14.460Z,19.00
2023-12-18T11:39:21.735Z,19.60
2023-12-18T11:42:50.288Z,18.60
2023-12-18T11:46:14.570Z,18.60
2023-12-18T11:49:24.156Z,19.00
2023-12-18T11:52:30.516Z,18.80
2023-12-18T11:55:55.418Z,19.60
2023-12-18T11:59:01.882Z,19.00
2023-12-18T12:02:08.174Z,20.10
2023-12-18T12:05:15.582Z,18.60
2023-12-18T12:08:22.495Z,18.40
2023-12-18T12:11:30.111Z,16.20
2023-12-18T12:14:36.292Z,16.60
2023-12-18T12:17:42.581Z,15.00
2023-12-18T12:20:49.272Z,16.70
2023-12-18T12:23:55.388Z,16.90
2023-12-18T12:27:01.850Z,17.30
2023-12-18T12:30:10.395Z,17.10
2023-12-18T12:33:17.771Z,17.60
2023-12-18T12:36:25.536Z,17.80
2023-12-18T12:39:33.921Z,18.50
2023-12-18T12:42:42.651Z,18.20
2023-12-18T12:45:50.687Z,17.40
2023-12-18T12:48:56.901Z,16.20
2023-12-18T12:52:04.194Z,16.90
2023-12-18T12:55:11.937Z,15.40
2023-12-18T12:58:18.323Z,16.30
2023-12-18T13:01:25.682Z,16.50
2023-12-18T13:04:32.211Z,15.90
2023-12-18T13:07:38.709Z,15.50
2023-12-18T13:10:44.784Z,15.60
2023-12-18T13:13:52.835Z,17.30
2023-12-18T13:16:59.907Z,19.60
2023-12-18T13:20:15.792Z,17.00
2023-12-18T13:23:25.643Z,16.30
2023-12-18T13:26:33.458Z,15.80
2023-12-18T13:29:42.875Z,17.00
2023-12-18T13:32:49.774Z,17.10
2023-12-18T13:35:58.169Z,18.10
2023-12-18T13:39:04.552Z,17.50
2023-12-18T13:42:11.951Z,17.90
2023-12-18T13:45:20.329Z,17.50
2023-12-18T13:48:26.569Z,17.10
2023-12-18T13:51:33.946Z,17.10
2023-12-18T13:54:41.645Z,16.30
2023-12-18T13:57:49.368Z,15.40
2023-12-18T14:00:55.861Z,15.80
2023-12-18T14:04:01.936Z,16.70
2023-12-18T14:07:08.582Z,17.00
2023-12-18T14:10:14.484Z,16.60
2023-12-18T14:13:20.720Z,17.20
2023-12-18T14:16:26.688Z,18.10
2023-12-18T14:19:33.109Z,17.10
2023-12-18T14:22:39.551Z,16.70
2023-12-18T14:25:47.070Z,16.80
2023-12-18T14:28:54.704Z,16.70
2023-12-18T14:32:00.960Z,18.40
2023-12-18T14:35:07.953Z,18.30
2023-12-18T14:38:18.405Z,18.30
2023-12-18T14:41:24.582Z,17.70
2023-12-18T14:44:35.641Z,19.20
2023-12-18T14:47:42.173Z,18.60
2023-12-18T14:50:48.042Z,16.60
2023-12-18T14:53:54.887Z,17.40
2023-12-18T14:57:01.165Z,18.20
2023-12-18T15:00:08.531Z,17.80
2023-12-18T15:03:14.693Z,18.10
2023-12-18T15:06:21.016Z,17.90
2023-12-18T15:09:29.522Z,17.70
2023-12-18T15:12:36.099Z,17.50
2023-12-18T15:15:42.252Z,17.50
2023-12-18T15:18:48.705Z,17.30
2023-12-18T15:21:54.999Z,16.70
2023-12-18T15:25:01.106Z,17.60
2023-12-18T15:28:09.609Z,16.10
2023-12-18T15:31:15.877Z,17.10
2023-12-18T15:34:21.857Z,16.00
2023-12-18T15:37:28.201Z,16.40
2023-12-18T15:40:35.011Z,16.00
2023-12-18T15:43:40.813Z,16.20
2023-12-18T15:46:47.026Z,15.70
2023-12-18T15:49:53.104Z,16.40
2023-12-18T15:52:59.212Z,15.70
2023-12-18T15:56:05.199Z,15.80
2023-12-18T15:59:11.088Z,16.20
2023-12-18T16:02:17.085Z,16.20
2023-12-18T16:05:23.137Z,15.20
2023-12-18T16:08:29.068Z,15.70
2023-12-18T16:11:34.997Z,15.70
2023-12-18T16:14:41.100Z,15.20
2023-12-18T16:17:48.241Z,15.10
2023-12-18T16:20:54.620Z,16.80
2023-12-18T16:24:00.529Z,17.20
2023-12-18T16:27:08.179Z,16.20
2023-12-18T16:30:15.717Z,16.20
2023-12-18T16:33:22.165Z,17.10
2023-12-18T16:36:29.161Z,16.60
2023-12-18T16:39:36.007Z,18.90
2023-12-18T16:42:42.830Z,19.10
2023-12-18T16:45:49.664Z,17.40
2023-12-18T16:48:56.437Z,16.60
2023-12-18T16:52:02.773Z,16.60
2023-12-18T16:55:13.090Z,15.80
2023-12-18T16:58:21.521Z,15.40
2023-12-18T17:01:27.397Z,15.40
2023-12-18T17:04:33.865Z,14.60
2023-12-18T17:07:40.077Z,15.20
2023-12-18T17:10:46.672Z,15.20
2023-12-18T17:13:52.410Z,14.40
2023-12-18T17:16:58.708Z,14.90
2023-12-18T17:20:06.562Z,14.30
2023-12-18T17:23:12.678Z,14.70
2023-12-18T17:26:18.691Z,13.60
2023-12-18T17:29:25.227Z,14.30
2023-12-18T17:32:31.855Z,13.90
2023-12-18T17:35:38.304Z,13.80
2023-12-18T17:38:44.477Z,13.60
2023-12-18T17:41:50.544Z,13.80
2023-12-18T17:44:56.640Z,13.50
2023-12-18T17:48:02.730Z,13.90
2023-12-18T17:51:09.624Z,12.50
2023-12-18T17:54:15.573Z,12.60
2023-12-18T17:57:21.836Z,13.00
2023-12-18T18:00:28.664Z,13.00
2023-12-18T18:03:36.266Z,13.00
2023-12-18T18:06:42.302Z,13.30
2023-12-18T18:09:48.956Z,13.70
2023-12-18T18:12:55.313Z,12.80
2023-12-18T18:16:07.249Z,12.50
2023-12-18T18:19:49.812Z,10.50
2023-12-18T18:23:01.517Z,12.20
2023-12-18T18:26:17.279Z,11.60
2023-12-18T18:29:29.528Z,11.40
2023-12-18T18:32:40.168Z,11.30
2023-12-18T18:35:52.480Z,10.40
2023-12-18T18:39:07.404Z,10.80
2023-12-18T18:42:17.653Z,11.70
2023-12-18T18:45:29.739Z,10.60
2023-12-18T18:48:42.702Z,10.80
2023-12-18T18:51:55.328Z,10.70
2023-12-18T18:55:07.955Z,10.50
2023-12-18T18:58:18.090Z,11.00
2023-12-18T19:01:29.600Z,10.20
2023-12-18T19:04:41.037Z,10.60
2023-12-18T19:07:53.801Z,10.60
2023-12-18T19:11:05.555Z,10.50
2023-12-18T19:14:16.996Z,10.00
2023-12-18T19:17:27.294Z,10.60
2023-12-18T19:20:40.469Z,10.50
2023-12-18T19:23:51.057Z,11.20
2023-12-18T19:27:01.834Z,11.00
2023-12-18T19:30:15.697Z,10.70
2023-12-18T19:33:26.567Z,11.00
2023-12-18T19:36:38.093Z,12.60
2023-12-18T19:39:47.727Z,11.40
2023-12-18T19:42:58.799Z,11.60
2023-12-18T19:46:09.417Z,11.00
2023-12-18T19:49:21.861Z,10.80
2023-12-18T19:52:31.897Z,10.90
2023-12-18T19:55:44.072Z,11.30
2023-12-18T19:58:53.689Z,12.30
2023-12-18T20:02:07.595Z,13.00
2023-12-18T20:05:18.768Z,15.10
2023-12-18T20:08:28.910Z,14.80
2023-12-18T20:11:39.317Z,14.00
2023-12-18T20:14:49.436Z,12.30
2023-12-18T20:18:01.759Z,12.10
2023-12-18T20:21:16.305Z,10.80
2023-12-18T20:24:28.339Z,10.60
2023-12-18T20:27:41.575Z,10.70
2023-12-18T20:30:52.729Z,9.80
2023-12-18T20:34:03.206Z,10.80
2023-12-18T20:37:15.430Z,10.40
2023-12-18T20:40:26.231Z,10.80
2023-12-18T20:43:38.223Z,9.80
2023-12-18T20:47:03.498Z,9.60
2023-12-18T20:50:31.518Z,10.60
2023-12-18T21:14:22.575Z,10.90
2023-12-18T21:18:05.501Z,9.60
2023-12-18T21:21:38.817Z,9.20
2023-12-18T21:25:19.764Z,9.50
2023-12-18T21:32:07.277Z,8.50
2023-12-18T21:35:20.732Z,9.40
2023-12-18T21:38:26.955Z,10.00
2023-12-18T21:41:33.318Z,10.60
2023-12-18T21:44:39.578Z,11.00
2023-12-18T21:47:45.943Z,10.60
2023-12-18T21:50:52.036Z,9.40
2023-12-18T21:53:57.913Z,9.60
2023-12-18T21:57:03.853Z,10.50
2023-12-18T22:00:11.776Z,11.80
2023-12-18T22:03:19.609Z,12.50
2023-12-18T22:06:25.794Z,12.40
2023-12-18T22:09:31.656Z,12.20
2023-12-18T22:12:38.182Z,12.50
2023-12-18T22:15:44.457Z,13.50
2023-12-18T22:18:51.205Z,12.50
2023-12-18T22:21:57.509Z,14.30
2023-12-18T22:25:03.727Z,14.00
2023-12-18T22:28:10.000Z,12.40
2023-12-18T22:31:16.151Z,13.50
2023-12-18T22:34:22.131Z,12.80
2023-12-18T22:37:28.282Z,11.80
2023-12-18T22:40:34.173Z,12.10
2023-12-18T22:43:40.191Z,12.50
2023-12-18T22:46:46.249Z,12.50
2023-12-18T22:49:52.480Z,12.70
2023-12-18T22:52:59.246Z,13.20
2023-12-18T22:56:07.862Z,13.10
2023-12-18T22:59:13.678Z,13.10
2023-12-18T23:02:19.543Z,15.00
2023-12-18T23:05:25.441Z,13.90
2023-12-18T23:08:31.871Z,14.20
2023-12-18T23:11:37.763Z,14.20
2023-12-18T23:14:43.526Z,14.60
2023-12-18T23:17:49.575Z,14.90
2023-12-18T23:20:55.925Z,14.50
2023-12-18T23:24:02.598Z,14.80
2023-12-18T23:27:11.376Z,14.30
2023-12-18T23:30:17.587Z,14.50
2023-12-18T23:33:28.383Z,14.80
2023-12-18T23:36:37.745Z,15.40
2023-12-18T23:39:45.513Z,14.70
2023-12-18T23:42:51.431Z,14.60
2023-12-18T23:45:57.294Z,14.30
2023-12-18T23:49:03.348Z,15.50
2023-12-18T23:52:09.550Z,15.40
2023-12-18T23:55:16.058Z,14.80
2023-12-18T23:58:22.125Z,14.90
